Time;durP1;ratioP1;P1;durP2;ratioP2;P2;SDS_P1;SDS_P2;PMS_P1;PMS_P2;Temp;Humidity;BMP_temperature;BMP_pressure;BME280_temperature;BME280_humidity;BME280_pressure;Samples;Min_cycle;Max_cycle;Signal;HPM_P1;HPM_P2
2023/07/31 00:00:05;;;;;;;3.80;0.80;;;20.30;99.90;;;20.88;nan;100524.47;4994003;28;20648;-66
2023/07/31 00:02:32;;;;;;;0.80;0.80;;;20.40;99.90;;;20.92;nan;100527.59;4991338;28;20642;-66
2023/07/31 00:05:00;;;;;;;1.17;0.90;;;20.40;99.90;;;20.91;nan;100529.44;4993895;28;20642;-66
2023/07/31 00:07:27;;;;;;;1.13;1.13;;;20.40;99.90;;;20.93;nan;100519.47;4997916;28;20707;-67
2023/07/31 00:09:56;;;;;;;1.43;0.80;;;20.40;99.90;;;20.97;nan;100519.91;4992411;28;20652;-66
2023/07/31 00:12:23;;;;;;;0.90;0.90;;;20.50;99.90;;;20.95;nan;100517.47;4992153;28;20656;-67
2023/07/31 00:14:50;;;;;;;0.70;0.70;;;20.50;99.90;;;20.92;nan;100512.50;4996620;28;21046;-66
2023/07/31 00:17:18;;;;;;;2.40;1.10;;;20.50;99.90;;;20.92;nan;100509.84;4991901;28;20677;-66
2023/07/31 00:19:46;;;;;;;1.07;0.87;;;20.50;99.90;;;20.94;nan;100512.31;4994589;28;20645;-67
2023/07/31 00:22:13;;;;;;;0.87;0.80;;;20.50;99.90;;;20.93;nan;100513.31;4999268;28;20644;-66
2023/07/31 00:24:40;;;;;;;1.13;1.03;;;20.50;99.90;;;20.89;nan;100508.38;4994214;28;20642;-66
2023/07/31 00:27:06;;;;;;;0.83;0.83;;;20.40;99.90;;;20.87;nan;100509.53;4991669;28;20662;-67
2023/07/31 00:29:33;;;;;;;0.80;0.80;;;20.40;99.90;;;20.90;nan;100514.50;4992954;28;20638;-67
2023/07/31 00:32:00;;;;;;;0.93;0.87;;;20.40;99.90;;;20.86;nan;100506.09;4993008;28;20641;-66
2023/07/31 00:34:27;;;;;;;0.70;0.70;;;20.40;99.90;;;20.81;nan;100512.91;4992891;28;20639;-66
2023/07/31 00:36:54;;;;;;;0.93;0.87;;;20.30;99.90;;;20.79;nan;100509.63;4996555;28;20670;-68
2023/07/31 00:39:21;;;;;;;0.87;0.80;;;20.30;99.90;;;20.76;nan;100507.34;4995188;28;21258;-67
2023/07/31 00:41:48;;;;;;;1.00;1.00;;;20.30;99.90;;;20.79;nan;100504.31;4998842;28;20641;-67
2023/07/31 00:44:15;;;;;;;2.73;0.93;;;20.30;99.90;;;20.74;nan;100501.41;4995618;28;20645;-66
2023/07/31 00:46:42;;;;;;;0.70;0.60;;;20.30;99.90;;;20.73;nan;100503.22;4988974;28;20661;-66
2023/07/31 00:49:10;;;;;;;0.80;0.80;;;20.30;99.90;;;20.73;nan;100499.75;4983914;28;20667;-67
2023/07/31 00:51:37;;;;;;;0.90;0.90;;;20.30;99.90;;;20.71;nan;100501.75;4992369;28;20626;-66
2023/07/31 00:54:04;;;;;;;0.80;0.80;;;20.20;99.90;;;20.70;nan;100497.44;4996346;28;20637;-66
2023/07/31 00:56:31;;;;;;;1.53;1.10;;;20.20;99.90;;;20.68;nan;100488.84;4989895;28;20684;-68
2023/07/31 00:58:58;;;;;;;1.13;1.03;;;20.20;99.90;;;20.66;nan;100482.88;5007898;28;20666;-66
2023/07/31 01:01:25;;;;;;;0.60;0.60;;;20.20;99.90;;;20.64;nan;100487.53;4992468;28;20638;-67
2023/07/31 01:03:56;;;;;;;0.90;0.90;;;20.20;99.90;;;20.61;nan;100479.97;4989289;28;20709;-69
2023/07/31 01:06:46;;;;;;;1.03;1.00;;;20.20;99.90;;;20.60;nan;100483.59;4989307;28;20670;-66
2023/07/31 01:09:35;;;;;;;1.53;0.80;;;20.20;99.90;;;20.59;nan;100484.63;4989958;28;21220;-67
2023/07/31 01:12:04;;;;;;;1.30;0.93;;;20.10;99.90;;;20.59;nan;100487.28;4988615;28;20638;-67
2023/07/31 01:14:31;;;;;;;1.50;1.03;;;20.10;99.90;;;20.59;nan;100476.69;5004748;28;21434;-66
2023/07/31 01:16:58;;;;;;;0.67;0.67;;;20.10;99.90;;;20.55;nan;100478.03;4991401;28;21231;-66
2023/07/31 01:19:30;;;;;;;0.77;0.77;;;20.10;99.90;;;20.53;nan;100485.34;4988722;28;20723;-65
2023/07/31 01:22:45;;;;;;;1.43;1.00;;;20.00;99.90;;;20.52;nan;100483.69;4992233;28;20626;-66
2023/07/31 01:25:50;;;;;;;0.80;0.80;;;20.00;99.90;;;20.56;nan;100490.28;4990966;28;20630;-66
2023/07/31 01:28:33;;;;;;;3.37;1.17;;;20.10;99.90;;;20.53;nan;100482.69;4990377;28;21220;-66
2023/07/31 01:31:02;;;;;;;0.93;0.80;;;20.00;99.90;;;20.51;nan;100474.06;4998944;28;20667;-65
2023/07/31 01:33:29;;;;;;;0.90;0.90;;;20.00;99.90;;;20.45;nan;100472.13;4991733;28;20630;-64
2023/07/31 01:35:57;;;;;;;0.80;0.80;;;20.00;99.90;;;20.43;nan;100474.97;4982555;28;20634;-65
2023/07/31 01:38:24;;;;;;;0.80;0.80;;;20.00;99.90;;;20.42;nan;100472.50;4984352;28;20670;-66
2023/07/31 01:40:53;;;;;;;1.20;1.00;;;19.90;99.90;;;20.44;nan;100467.84;4996536;28;20642;-68
2023/07/31 01:43:20;;;;;;;1.47;0.90;;;20.00;99.90;;;20.46;nan;100465.84;4985197;28;20642;-65
2023/07/31 01:45:47;;;;;;;1.13;1.03;;;20.00;99.90;;;20.46;nan;100468.50;4991902;28;20651;-64
2023/07/31 01:48:14;;;;;;;1.83;0.90;;;20.00;99.90;;;20.44;nan;100468.69;4991169;28;20649;-65
2023/07/31 01:50:41;;;;;;;0.80;0.80;;;20.00;99.90;;;20.46;nan;100464.03;4979757;28;20646;-66
2023/07/31 01:53:08;;;;;;;1.20;1.10;;;20.00;99.90;;;20.44;nan;100466.03;4991571;28;20642;-65
2023/07/31 01:55:35;;;;;;;1.00;1.00;;;20.00;99.90;;;20.41;nan;100458.41;4990875;28;21024;-64
2023/07/31 01:58:02;;;;;;;0.80;0.80;;;19.90;99.90;;;20.40;nan;100463.91;4989310;28;20688;-65
2023/07/31 02:00:29;;;;;;;0.73;0.70;;;19.90;99.90;;;20.39;nan;100465.72;4990705;28;20634;-65
2023/07/31 02:02:56;;;;;;;2.20;1.10;;;19.90;99.90;;;20.37;nan;100453.66;4992662;28;20645;-66
2023/07/31 02:05:23;;;;;;;1.20;1.10;;;19.90;99.90;;;20.32;nan;100450.69;4991034;28;20638;-65
2023/07/31 02:07:50;;;;;;;1.07;0.93;;;19.90;99.90;;;20.30;nan;100452.69;4989356;28;20674;-65
2023/07/31 02:10:17;;;;;;;1.10;1.00;;;19.90;99.90;;;20.26;nan;100454.06;4997281;28;21242;-65
2023/07/31 02:12:45;;;;;;;1.27;1.00;;;19.80;99.90;;;20.28;nan;100446.75;4990792;28;20738;-65
2023/07/31 02:15:12;;;;;;;3.93;0.90;;;19.80;99.90;;;20.27;nan;100447.78;4999754;28;20645;-65
2023/07/31 02:17:39;;;;;;;1.33;1.03;;;19.80;99.90;;;20.26;nan;100451.41;4990387;28;20736;-64
2023/07/31 02:20:07;;;;;;;0.77;0.77;;;19.80;99.90;;;20.26;nan;100452.25;4990989;28;20638;-64
2023/07/31 02:22:34;;;;;;;0.87;0.87;;;19.80;99.90;;;20.28;nan;100446.75;4983474;28;20630;-66
2023/07/31 02:25:01;;;;;;;0.93;0.90;;;19.80;99.90;;;20.26;nan;100436.34;4991378;28;20638;-65
2023/07/31 02:27:28;;;;;;;0.87;0.87;;;19.80;99.90;;;20.29;nan;100432.53;4991179;28;20646;-64
2023/07/31 02:29:55;;;;;;;1.00;0.80;;;19.80;99.90;;;20.27;nan;100434.53;4987123;28;20642;-65
2023/07/31 02:32:22;;;;;;;1.23;1.13;;;19.80;99.90;;;20.21;nan;100443.97;4990165;28;21211;-65
2023/07/31 02:34:49;;;;;;;11.10;1.50;;;19.80;99.90;;;20.19;nan;100447.81;4989464;28;21004;-64
2023/07/31 02:37:16;;;;;;;1.40;0.90;;;19.70;99.90;;;20.18;nan;100432.91;4988015;28;20654;-65
2023/07/31 02:39:43;;;;;;;0.90;0.90;;;19.70;99.90;;;20.16;nan;100426.94;4991217;28;20669;-65
2023/07/31 02:42:09;;;;;;;0.80;0.80;;;19.70;99.90;;;20.05;nan;100429.03;4990133;28;20646;-64
2023/07/31 02:44:37;;;;;;;1.70;1.03;;;19.60;99.90;;;19.99;nan;100419.13;4987696;28;20643;-64
2023/07/31 02:47:04;;;;;;;5.87;0.80;;;19.60;99.90;;;19.98;nan;100429.88;4988519;28;20673;-63
2023/07/31 02:49:31;;;;;;;1.03;0.67;;;19.50;99.90;;;19.97;nan;100429.09;4973164;28;21032;-66
2023/07/31 02:51:58;;;;;;;2.20;1.30;;;19.50;99.90;;;19.95;nan;100424.94;4981740;28;20669;-65
2023/07/31 02:54:25;;;;;;;0.57;0.57;;;19.50;99.90;;;19.93;nan;100426.94;4990235;28;21191;-64
2023/07/31 02:56:52;;;;;;;0.80;0.80;;;19.50;99.90;;;19.89;nan;100430.94;4992080;28;20673;-64
2023/07/31 02:59:20;;;;;;;1.00;1.00;;;19.40;99.90;;;19.87;nan;100423.16;4985220;28;20682;-65
2023/07/31 03:01:46;;;;;;;2.10;0.70;;;19.40;99.90;;;19.84;nan;100423.53;4987812;28;20638;-65
2023/07/31 03:04:13;;;;;;;1.40;1.00;;;19.40;99.90;;;19.82;nan;100424.69;4989976;28;20626;-64
2023/07/31 03:06:43;;;;;;;1.13;0.83;;;19.40;99.90;;;19.80;nan;100427.53;4989860;28;20666;-64
2023/07/31 03:09:10;;;;;;;1.00;1.00;;;19.30;99.90;;;19.79;nan;100422.38;4988771;28;21203;-65
2023/07/31 03:11:37;;;;;;;0.93;0.80;;;19.30;99.90;;;19.83;nan;100418.38;4988009;28;21210;-65
2023/07/31 03:14:04;;;;;;;1.40;1.30;;;19.40;99.90;;;19.84;nan;100423.53;4989380;28;20846;-64
2023/07/31 03:16:31;;;;;;;1.80;1.30;;;19.40;99.90;;;19.84;nan;100418.22;4983278;28;20704;-65
2023/07/31 03:18:58;;;;;;;1.40;1.10;;;19.40;99.90;;;19.81;nan;100425.69;4990090;28;20673;-64
2023/07/31 03:21:25;;;;;;;0.90;0.90;;;19.40;99.90;;;19.81;nan;100429.16;4984987;28;20646;-65
2023/07/31 03:23:52;;;;;;;1.60;1.27;;;19.30;99.90;;;19.86;nan;100432.13;4989424;28;20999;-65
2023/07/31 03:26:18;;;;;;;0.80;0.80;;;19.40;99.90;;;19.85;nan;100430.47;4986201;28;20673;-65
2023/07/31 03:28:45;;;;;;;0.80;0.80;;;19.40;99.90;;;19.87;nan;100423.16;4986753;28;20637;-65
2023/07/31 03:31:13;;;;;;;0.77;0.77;;;19.40;99.90;;;19.86;nan;100421.53;4992659;28;20646;-65
2023/07/31 03:33:40;;;;;;;2.03;0.90;;;19.50;99.90;;;19.83;nan;100421.88;4987615;28;20637;-65
2023/07/31 03:36:07;;;;;;;0.60;0.60;;;19.40;99.90;;;19.81;nan;100421.22;4994133;28;20665;-63
2023/07/31 03:38:34;;;;;;;2.60;1.60;;;19.40;99.90;;;19.79;nan;100422.38;4993933;28;21242;-65
2023/07/31 03:41:02;;;;;;;0.80;0.80;;;19.40;99.90;;;19.76;nan;100425.41;4995212;28;20647;-65
2023/07/31 03:43:29;;;;;;;1.00;1.00;;;19.30;99.90;;;19.76;nan;100426.19;4988954;28;20639;-65
2023/07/31 03:45:56;;;;;;;1.30;1.03;;;19.30;99.90;;;19.75;nan;100413.97;4988162;28;20638;-64
2023/07/31 03:48:23;;;;;;;0.90;0.90;;;19.30;99.90;;;19.78;nan;100424.19;4990908;28;20646;-65
2023/07/31 03:50:50;;;;;;;1.80;1.07;;;19.30;99.90;;;19.82;nan;100414.09;4991081;28;20645;-61
2023/07/31 03:53:17;;;;;;;1.37;1.10;;;19.40;99.90;;;19.83;nan;100416.56;4992192;28;20642;-65
2023/07/31 03:55:43;;;;;;;1.10;1.10;;;19.40;99.90;;;19.83;nan;100423.69;4992173;28;20645;-65
2023/07/31 03:58:10;;;;;;;5.80;1.37;;;19.40;99.90;;;19.84;nan;100415.59;4988956;28;21413;-64
2023/07/31 04:00:37;;;;;;;0.90;0.90;;;19.40;99.90;;;19.80;nan;100414.28;4994744;28;21503;-65
2023/07/31 04:03:04;;;;;;;1.23;1.13;;;19.40;99.90;;;19.77;nan;100416.44;4997590;28;20752;-64
2023/07/31 04:05:32;;;;;;;1.00;0.80;;;19.40;99.90;;;19.73;nan;100418.63;4978542;28;20642;-67
2023/07/31 04:07:59;;;;;;;2.10;1.93;;;19.30;99.90;;;19.73;nan;100423.91;4992286;28;20669;-65
2023/07/31 04:10:26;;;;;;;2.50;1.23;;;19.30;99.90;;;19.70;nan;100416.31;4990733;28;20634;-64
2023/07/31 04:12:53;;;;;;;1.50;1.40;;;19.30;99.90;;;19.72;nan;100419.59;4996240;28;20648;-64
2023/07/31 04:15:20;;;;;;;1.07;1.07;;;19.30;99.90;;;19.77;nan;100413.78;4992388;28;20634;-65
2023/07/31 04:17:47;;;;;;;1.80;1.17;;;19.30;99.90;;;19.77;nan;100421.72;4996796;28;20676;-64
2023/07/31 04:20:14;;;;;;;1.50;1.30;;;19.40;99.90;;;19.69;nan;100419.16;4988653;28;20677;-64
2023/07/31 04:22:41;;;;;;;0.70;0.70;;;19.30;99.90;;;19.64;nan;100411.72;4993658;28;20638;-64
2023/07/31 04:25:08;;;;;;;1.20;0.97;;;19.20;99.90;;;19.62;nan;100419.00;4991641;28;20619;-64
2023/07/31 04:27:35;;;;;;;1.20;1.00;;;19.20;99.90;;;19.62;nan;100413.72;4989561;28;21244;-64
2023/07/31 04:30:03;;;;;;;2.17;1.17;;;19.20;99.90;;;19.62;nan;100419.00;4988920;28;21019;-65
2023/07/31 04:32:30;;;;;;;1.27;1.17;;;19.20;99.90;;;19.61;nan;100425.31;4989308;28;20646;-65
2023/07/31 04:34:57;;;;;;;1.03;1.03;;;19.20;99.90;;;19.65;nan;100429.25;4986604;28;20636;-66
2023/07/31 04:37:24;;;;;;;2.80;1.20;;;19.20;99.90;;;19.71;nan;100417.97;4989836;28;20700;-67
2023/07/31 04:39:51;;;;;;;2.37;0.97;;;19.20;99.90;;;19.77;nan;100416.44;4989040;28;20680;-65
2023/07/31 04:42:18;;;;;;;4.47;0.97;;;19.30;99.90;;;19.77;nan;100411.16;4992344;28;20633;-65
2023/07/31 04:44:45;;;;;;;1.90;1.23;;;19.30;99.90;;;19.80;nan;100409.00;4985670;28;20638;-65
2023/07/31 04:47:12;;;;;;;1.27;0.97;;;19.40;99.90;;;19.81;nan;100413.28;4988316;28;20661;-66
2023/07/31 04:49:39;;;;;;;2.00;1.20;;;19.40;99.90;;;19.82;nan;100409.66;4989405;28;20649;-65
2023/07/31 04:52:06;;;;;;;1.07;1.07;;;19.40;99.90;;;19.87;nan;100404.63;4991154;28;20646;-67
2023/07/31 04:54:33;;;;;;;1.03;1.00;;;19.40;99.90;;;19.91;nan;100405.91;4991819;28;21004;-65
2023/07/31 04:57:00;;;;;;;0.90;0.90;;;19.40;99.90;;;19.91;nan;100408.56;4989465;28;20756;-67
2023/07/31 04:59:27;;;;;;;1.30;0.90;;;19.50;99.90;;;19.92;nan;100402.28;4993034;28;21097;-67
2023/07/31 05:01:54;;;;;;;1.03;0.97;;;19.50;99.90;;;19.94;nan;100397.63;4989969;28;20645;-67
2023/07/31 05:04:21;;;;;;;1.80;1.23;;;19.50;99.90;;;19.96;nan;100395.63;4989624;28;20646;-66
2023/07/31 05:06:47;;;;;;;0.87;0.87;;;19.50;99.90;;;19.99;nan;100397.94;4990689;28;20666;-67
2023/07/31 05:09:14;;;;;;;1.27;0.90;;;19.60;99.90;;;20.01;nan;100401.25;4989678;28;20645;-69
2023/07/31 05:11:42;;;;;;;1.00;1.00;;;19.60;99.90;;;20.07;nan;100395.22;4987855;28;20639;-66
2023/07/31 05:14:09;;;;;;;0.80;0.80;;;19.70;99.90;;;20.16;nan;100397.81;4991300;28;20668;-67
2023/07/31 05:16:36;;;;;;;1.10;1.00;;;19.70;99.90;;;20.19;nan;100402.78;4990988;28;20662;-67
2023/07/31 05:19:04;;;;;;;1.30;1.17;;;19.70;99.90;;;20.22;nan;100405.91;4987267;28;20681;-66
2023/07/31 05:21:31;;;;;;;0.77;0.77;;;19.80;99.90;;;20.23;nan;100396.16;4983357;28;20642;-66
2023/07/31 05:23:58;;;;;;;0.97;0.97;;;19.80;99.90;;;20.23;nan;100404.09;4992193;28;20635;-66
2023/07/31 05:26:25;;;;;;;0.80;0.80;;;19.80;99.90;;;20.26;nan;100409.00;4995267;28;20666;-66
2023/07/31 05:28:52;;;;;;;2.03;1.40;;;19.80;99.90;;;20.31;nan;100406.66;4995657;28;20638;-66
2023/07/31 05:31:20;;;;;;;1.03;1.03;;;19.80;99.90;;;20.39;nan;100401.28;4994689;28;20648;-66
2023/07/31 05:33:49;;;;;;;1.17;0.80;;;19.90;99.90;;;20.42;nan;100401.75;4991640;28;20634;-67
2023/07/31 05:36:17;;;;;;;1.00;1.00;;;20.00;99.90;;;20.41;nan;100409.88;4995106;28;20662;-66
2023/07/31 05:38:44;;;;;;;0.93;0.93;;;20.00;99.90;;;20.43;nan;100399.94;4989594;28;20638;-66
2023/07/31 05:41:12;;;;;;;0.87;0.87;;;20.00;99.90;;;20.37;nan;100398.84;4991201;28;21203;-67
2023/07/31 05:43:39;;;;;;;1.50;1.20;;;20.00;99.90;;;20.31;nan;100401.38;4990599;28;20664;-65
2023/07/31 05:46:08;;;;;;;0.80;0.80;;;19.90;99.90;;;20.27;nan;100397.44;4993197;28;20663;-65
2023/07/31 05:48:36;;;;;;;1.33;1.20;;;19.90;99.90;;;20.27;nan;100392.13;4991919;28;20646;-66
2023/07/31 05:51:02;;;;;;;1.43;1.20;;;19.90;99.90;;;20.34;nan;100388.59;4992041;28;20716;-65
2023/07/31 05:53:29;;;;;;;0.83;0.83;;;19.90;99.90;;;20.42;nan;100383.19;4993329;28;20634;-66
2023/07/31 05:55:56;;;;;;;2.63;0.90;;;19.90;99.90;;;20.47;nan;100395.91;4991800;28;20649;-67
2023/07/31 05:58:23;;;;;;;0.90;0.90;;;20.00;99.90;;;20.50;nan;100388.44;4994295;28;20637;-66
2023/07/31 06:00:50;;;;;;;4.83;1.30;;;20.10;99.90;;;20.49;nan;100385.97;4994123;28;21316;-66
2023/07/31 06:03:18;;;;;;;0.97;0.97;;;20.10;99.90;;;20.47;nan;100383.50;4998495;28;20650;-67
2023/07/31 06:05:44;;;;;;;1.20;1.20;;;20.00;99.90;;;20.49;nan;100380.66;4989272;28;20638;-66
2023/07/31 06:08:11;;;;;;;1.97;1.30;;;20.00;99.90;;;20.45;nan;100382.03;4998706;28;20664;-68
2023/07/31 06:10:38;;;;;;;2.20;1.10;;;20.00;99.90;;;20.51;nan;100376.00;4991273;28;20704;-66
2023/07/31 06:13:05;;;;;;;3.37;1.20;;;20.00;99.90;;;20.57;nan;100380.59;4994406;28;20642;-66
2023/07/31 06:15:32;;;;;;;1.13;1.07;;;20.10;99.90;;;20.61;nan;100379.25;4993117;28;20645;-66
2023/07/31 06:18:01;;;;;;;0.90;0.90;;;20.20;99.90;;;20.72;nan;100381.44;4992714;28;20669;-66
2023/07/31 06:20:29;;;;;;;0.90;0.90;;;20.30;99.90;;;20.89;nan;100372.31;4988080;28;20681;-66
2023/07/31 06:22:56;;;;;;;0.70;0.70;;;20.40;99.90;;;21.16;nan;100381.47;4991385;28;20638;-67
2023/07/31 06:25:23;;;;;;;1.93;0.97;;;20.60;99.90;;;21.53;nan;100374.19;4995015;28;20648;-66
2023/07/31 06:27:49;;;;;;;0.70;0.70;;;21.00;99.90;;;22.04;nan;100374.16;4991783;28;20658;-64
2023/07/31 06:30:17;;;;;;;0.60;0.60;;;21.40;99.90;;;22.26;nan;100373.94;4984731;28;20641;-66
2023/07/31 06:32:44;;;;;;;0.93;0.93;;;21.70;99.90;;;22.45;nan;100375.09;4986213;28;21301;-66
2023/07/31 06:35:11;;;;;;;1.13;0.90;;;21.90;99.90;;;22.48;nan;100366.75;4987593;28;20627;-66
2023/07/31 06:37:40;;;;;;;0.77;0.77;;;22.00;99.90;;;22.44;nan;100373.47;4989253;28;20673;-67
2023/07/31 06:40:08;;;;;;;1.10;1.00;;;21.90;99.90;;;22.36;nan;100376.25;4986843;28;20670;-65
2023/07/31 06:42:36;;;;;;;1.10;1.10;;;21.90;99.90;;;22.28;nan;100373.72;4989392;28;20645;-65
2023/07/31 06:45:03;;;;;;;1.10;1.00;;;21.80;99.90;;;22.38;nan;100372.38;4989273;28;20635;-66
2023/07/31 06:47:30;;;;;;;1.70;0.83;;;21.90;99.90;;;22.42;nan;100372.84;4987491;28;20662;-66
2023/07/31 06:49:58;;;;;;;1.33;1.23;;;21.90;99.90;;;22.31;nan;100378.66;4980133;28;20642;-66
2023/07/31 06:52:25;;;;;;;1.00;1.00;;;21.90;99.90;;;22.46;nan;100384.72;4990790;28;21469;-66
2023/07/31 06:55:20;;;;;;;1.37;1.27;;;22.00;99.90;;;22.82;nan;100380.09;4987342;28;20642;-67
2023/07/31 06:57:53;;;;;;;3.03;1.63;;;22.30;99.90;;;23.68;nan;100392.00;4998575;28;21040;-66
2023/07/31 07:00:21;;;;;;;1.33;0.80;;;23.00;99.90;;;24.75;nan;100384.72;4987083;28;21088;-66
2023/07/31 07:02:50;;;;;;;1.20;1.10;;;24.00;99.90;;;25.88;nan;100380.41;4991033;28;20980;-67
2023/07/31 07:05:17;;;;;;;1.23;1.10;;;25.20;99.40;;;26.72;nan;100388.00;4986082;28;20646;-65
2023/07/31 07:07:44;;;;;;;1.13;1.00;;;26.00;97.90;;;27.35;nan;100392.09;4984337;28;20666;-66
2023/07/31 07:10:11;;;;;;;1.40;1.00;;;26.70;96.40;;;27.89;nan;100377.78;4987850;28;20638;-66
2023/07/31 07:12:38;;;;;;;2.93;1.20;;;27.30;94.80;;;28.14;nan;100391.03;4987409;28;20650;-67
2023/07/31 07:15:06;;;;;;;2.93;1.00;;;27.60;94.10;;;28.50;nan;100382.78;4986537;28;21139;-66
2023/07/31 07:17:33;;;;;;;3.23;1.13;;;28.00;93.30;;;28.56;nan;100395.28;4982106;28;20673;-65
2023/07/31 07:20:00;;;;;;;1.63;1.10;;;28.10;92.70;;;27.61;nan;100381.06;4986138;28;20668;-66
2023/07/31 07:22:27;;;;;;;2.50;0.97;;;27.50;92.60;;;26.75;nan;100382.22;4986472;28;20646;-67
2023/07/31 07:24:55;;;;;;;1.00;1.00;;;26.60;93.60;;;26.29;nan;100381.81;4983987;28;20991;-67
2023/07/31 07:27:22;;;;;;;2.60;1.40;;;26.00;94.00;;;25.89;nan;100374.06;4989303;28;20654;-67
2023/07/31 07:29:53;;;;;;;1.10;1.00;;;25.60;94.90;;;25.42;nan;100371.84;4990520;28;20652;-68
2023/07/31 07:32:21;;;;;;;2.17;1.47;;;25.10;95.50;;;24.87;nan;100375.09;4993837;28;20642;-66
2023/07/31 07:34:49;;;;;;;0.80;0.80;;;24.60;96.30;;;24.44;nan;100366.69;4986487;28;20642;-65
2023/07/31 07:37:16;;;;;;;1.43;0.87;;;24.20;97.00;;;24.38;nan;100367.53;4990409;28;20678;-67
2023/07/31 07:39:43;;;;;;;1.97;1.57;;;24.00;97.30;;;24.93;nan;100368.91;4989395;28;20673;-65
2023/07/31 07:42:10;;;;;;;1.93;1.10;;;24.30;97.50;;;26.22;nan;100363.13;4990169;28;20639;-66
2023/07/31 07:44:37;;;;;;;2.50;1.20;;;25.50;96.30;;;27.41;nan;100372.44;4989940;28;20638;-67
2023/07/31 07:47:08;;;;;;;0.90;0.90;;;26.70;94.70;;;28.17;nan;100379.84;4990145;28;20669;-66
2023/07/31 07:49:35;;;;;;;1.33;1.23;;;27.50;93.30;;;28.63;nan;100374.53;4988635;28;20992;-67
2023/07/31 07:52:03;;;;;;;1.63;1.53;;;28.10;92.60;;;29.02;nan;100373.81;4983353;28;20646;-67
2023/07/31 07:54:31;;;;;;;1.40;1.30;;;28.50;92.20;;;29.38;nan;100367.31;4990220;28;20626;-66
2023/07/31 07:56:58;;;;;;;2.50;1.30;;;29.00;90.80;;;29.04;nan;100363.66;4986783;28;20678;-67
2023/07/31 07:59:25;;;;;;;1.20;1.10;;;28.80;90.40;;;28.75;nan;100364.59;4991307;28;21221;-66
2023/07/31 08:01:52;;;;;;;1.20;1.10;;;28.50;90.50;;;28.26;nan;100348.97;4991981;28;21011;-66
2023/07/31 08:04:19;;;;;;;2.47;1.63;;;28.10;90.70;;;27.88;nan;100348.47;4988727;28;20648;-67
2023/07/31 08:06:46;;;;;;;1.40;1.30;;;27.60;91.20;;;27.63;nan;100354.00;4991922;28;20670;-67
2023/07/31 08:09:13;;;;;;;2.73;1.40;;;27.30;91.50;;;27.54;nan;100342.78;5001417;28;20673;-66
2023/07/31 08:11:40;;;;;;;0.80;0.80;;;27.20;91.70;;;27.24;nan;100343.78;4993574;28;20653;-67
2023/07/31 08:14:07;;;;;;;1.50;1.40;;;27.00;91.90;;;27.24;nan;100344.59;4990342;28;20646;-66
2023/07/31 08:16:34;;;;;;;1.53;1.40;;;26.90;92.00;;;27.56;nan;100335.34;4994986;28;20657;-67
2023/07/31 08:19:01;;;;;;;0.97;0.97;;;27.10;92.00;;;27.55;nan;100333.72;4993257;28;20668;-66
2023/07/31 08:21:28;;;;;;;1.37;0.87;;;27.20;91.90;;;27.41;nan;100328.75;4992453;28;21247;-67
2023/07/31 08:23:55;;;;;;;4.20;1.60;;;27.10;91.90;;;26.96;nan;100325.56;4994778;28;20622;-67
2023/07/31 08:26:22;;;;;;;0.90;0.90;;;26.60;92.30;;;26.79;nan;100311.19;4995673;28;20665;-67
2023/07/31 08:28:49;;;;;;;2.83;1.77;;;26.40;92.80;;;26.87;nan;100313.56;4991563;28;20642;-67
2023/07/31 08:31:16;;;;;;;1.07;1.07;;;26.50;93.00;;;27.21;nan;100312.09;4993226;28;20638;-67
2023/07/31 08:33:43;;;;;;;7.17;1.30;;;26.80;92.80;;;27.61;nan;100308.69;4994360;28;21199;-67
2023/07/31 08:36:10;;;;;;;2.57;1.47;;;27.10;92.60;;;27.94;nan;100310.03;4988100;28;20672;-67
2023/07/31 08:38:37;;;;;;;2.37;1.47;;;27.50;91.80;;;27.70;nan;100293.09;4992861;28;20644;-67
2023/07/31 08:41:05;;;;;;;0.93;0.93;;;27.40;91.90;;;27.52;nan;100290.47;4992050;28;21046;-67
2023/07/31 08:43:33;;;;;;;1.37;1.27;;;27.20;91.90;;;27.54;nan;100291.88;4995563;28;20642;-66
2023/07/31 08:46:02;;;;;;;1.57;1.10;;;27.10;92.20;;;27.04;nan;100287.81;4989674;28;20645;-69
2023/07/31 08:48:30;;;;;;;1.53;1.43;;;26.70;92.60;;;26.54;nan;100288.97;4992731;28;20645;-66
2023/07/31 08:50:57;;;;;;;1.80;0.83;;;26.30;92.90;;;25.72;nan;100279.41;4989976;28;20646;-66
2023/07/31 08:53:24;;;;;;;1.10;1.10;;;25.50;93.60;;;25.25;nan;100285.19;4995165;28;20657;-67
2023/07/31 08:55:54;;;;;;;1.30;1.30;;;25.00;94.50;;;24.95;nan;100281.44;5005772;28;20645;-68
2023/07/31 08:58:21;;;;;;;1.20;1.03;;;24.60;95.40;;;24.88;nan;100283.31;4996350;28;20640;-66
2023/07/31 09:00:49;;;;;;;0.80;0.80;;;24.50;95.70;;;24.66;nan;100280.88;4994856;28;20682;-67
2023/07/31 09:03:20;;;;;;;1.57;1.47;;;24.30;96.20;;;24.42;nan;100272.75;4999274;28;20634;-66
2023/07/31 09:05:47;;;;;;;1.30;1.20;;;24.00;96.60;;;24.36;nan;100278.91;4996668;28;20627;-63
2023/07/31 09:08:19;;;;;;;2.40;1.47;;;23.90;97.20;;;24.67;nan;100279.88;4991999;28;20638;-66
2023/07/31 09:10:47;;;;;;;1.40;1.30;;;24.10;97.30;;;24.83;nan;100277.78;4983071;28;20638;-68
2023/07/31 09:13:15;;;;;;;1.10;1.00;;;24.20;96.90;;;25.20;nan;100271.66;4992077;28;20642;-66
2023/07/31 09:15:45;;;;;;;1.20;1.10;;;24.60;96.70;;;25.56;nan;100271.06;4986764;28;20642;-66
2023/07/31 09:18:14;;;;;;;2.10;1.10;;;25.00;96.20;;;25.53;nan;100271.50;4990888;28;21187;-66
2023/07/31 09:20:41;;;;;;;2.77;1.40;;;25.00;95.90;;;25.59;nan;100271.47;4992609;28;20673;-66
2023/07/31 09:23:11;;;;;;;3.17;1.60;;;25.00;96.40;;;25.54;nan;100271.28;5001271;28;20627;-68
2023/07/31 09:25:42;;;;;;;3.30;1.10;;;25.00;96.10;;;25.24;nan;100275.53;4991601;28;20633;-66
2023/07/31 09:28:11;;;;;;;1.03;0.90;;;24.80;96.10;;;25.11;nan;100270.25;5000943;28;20658;-66
2023/07/31 09:30:51;;;;;;;1.57;1.47;;;24.70;96.40;;;25.22;nan;100266.94;4998515;28;20637;-66
2023/07/31 09:33:19;;;;;;;1.60;1.60;;;24.70;96.50;;;25.27;nan;100261.78;4993317;28;20646;-66
2023/07/31 09:35:48;;;;;;;1.10;0.97;;;24.70;96.10;;;25.54;nan;100262.44;4989948;28;20653;-65
2023/07/31 09:38:16;;;;;;;3.67;1.73;;;24.90;95.70;;;25.71;nan;100275.06;4987982;28;20642;-66
2023/07/31 09:40:48;;;;;;;2.97;1.60;;;25.10;95.40;;;25.77;nan;100263.50;4990107;28;21273;-67
2023/07/31 09:43:21;;;;;;;2.00;1.90;;;25.20;95.30;;;25.69;nan;100254.94;4990261;28;20649;-66
2023/07/31 09:45:54;;;;;;;4.10;1.50;;;25.10;95.10;;;25.54;nan;100251.75;4989289;28;20645;-66
2023/07/31 09:48:26;;;;;;;1.30;1.30;;;25.00;95.10;;;25.53;nan;100252.81;4987106;28;20889;-66
2023/07/31 09:50:54;;;;;;;1.83;1.73;;;25.00;95.40;;;25.42;nan;100248.97;5006219;28;20695;-66
2023/07/31 09:53:32;;;;;;;1.50;1.40;;;24.90;95.20;;;25.35;nan;100251.66;5000684;28;20646;-66
2023/07/31 09:55:59;;;;;;;1.60;1.50;;;24.80;95.30;;;25.34;nan;100243.88;4992643;28;21231;-67
2023/07/31 09:58:29;;;;;;;1.47;1.40;;;24.80;95.40;;;25.27;nan;100241.25;4994915;28;20639;-66
2023/07/31 10:00:59;;;;;;;3.43;1.40;;;24.70;95.40;;;25.10;nan;100239.28;4995660;28;20685;-66
2023/07/31 10:03:27;;;;;;;2.57;1.57;;;24.60;95.60;;;24.94;nan;100235.25;4992958;28;20832;-67
2023/07/31 10:05:56;;;;;;;1.50;1.50;;;24.50;95.80;;;24.97;nan;100234.81;4998812;28;20634;-67
2023/07/31 10:08:30;;;;;;;2.33;1.30;;;24.50;96.00;;;25.03;nan;100230.47;4983851;28;20650;-67
2023/07/31 10:11:02;;;;;;;1.00;1.00;;;24.50;96.00;;;25.19;nan;100227.31;4987552;28;20654;-67
2023/07/31 10:13:30;;;;;;;1.60;1.50;;;24.60;96.10;;;25.32;nan;100216.56;5001230;28;20643;-66
2023/07/31 10:16:02;;;;;;;4.50;1.20;;;24.70;96.00;;;25.27;nan;100211.03;4991216;28;20638;-68
2023/07/31 10:18:29;;;;;;;1.40;1.30;;;24.80;95.40;;;25.10;nan;100207.25;4991741;28;20680;-68
2023/07/31 10:20:57;;;;;;;1.70;1.30;;;24.60;95.70;;;25.16;nan;100204.53;4990846;28;20705;-65
2023/07/31 10:23:25;;;;;;;1.80;1.70;;;24.60;95.90;;;25.29;nan;100203.63;4989213;28;20638;-68
2023/07/31 10:25:54;;;;;;;3.10;1.20;;;24.70;95.90;;;25.33;nan;100202.16;4986401;28;20641;-67
2023/07/31 10:28:21;;;;;;;1.30;1.23;;;24.80;95.80;;;25.25;nan;100202.44;5005951;28;20642;-66